createdAt,value
2019-03-26T00:01:22.303Z,3.63
2019-03-26T00:21:31.734Z,3.08
2019-03-26T00:41:43.476Z,3.24
2019-03-26T01:01:42.967Z,2.89
2019-03-26T01:41:52.518Z,3.81
2019-03-26T02:02:01.998Z,4.28
2019-03-26T02:22:13.714Z,3.98
2019-03-26T02:42:13.299Z,4.02
2019-03-26T03:02:22.771Z,4.21
2019-03-26T03:22:32.258Z,4.15
2019-03-26T03:42:41.788Z,4.67
2019-03-26T04:02:55.847Z,6.70
2019-03-26T04:22:55.367Z,3.28
2019-03-26T04:43:04.842Z,1.97
2019-03-26T05:03:14.423Z,1.83
2019-03-26T05:23:23.905Z,2.03
2019-03-26T05:43:33.426Z,1.68
2019-03-26T06:03:42.882Z,1.59
2019-03-26T06:23:53.867Z,1.55
2019-03-26T06:44:01.729Z,1.38
2019-03-26T07:04:11.180Z,1.74
2019-03-26T07:24:20.970Z,1.29
2019-03-26T07:44:32.753Z,1.47
2019-03-26T08:04:33.057Z,1.65
2019-03-26T08:24:32.701Z,1.45
2019-03-26T08:44:42.539Z,1.82
2019-03-26T09:04:52.169Z,1.86
2019-03-26T09:25:01.758Z,1.71
2019-03-26T09:45:11.317Z,1.41
2019-03-26T10:05:20.754Z,1.42
2019-03-26T10:25:30.204Z,1.38
2019-03-26T10:45:39.664Z,1.39
2019-03-26T11:05:49.331Z,1.60
2019-03-26T11:25:58.881Z,1.66
2019-03-26T11:46:08.453Z,1.46
2019-03-26T12:06:17.961Z,1.50
2019-03-26T12:26:29.991Z,1.32
2019-03-26T12:46:29.417Z,1.39
2019-03-26T13:06:38.971Z,1.48
2019-03-26T13:26:49.099Z,1.81
2019-03-26T13:46:57.092Z,1.58
2019-03-26T14:07:08.846Z,2.93
2019-03-26T14:27:09.418Z,1.39
2019-03-26T14:47:08.921Z,1.01
2019-03-26T15:07:20.963Z,1.39
2019-03-26T15:27:20.496Z,1.63
2019-03-26T15:47:31.303Z,1.55
2019-03-26T16:07:41.393Z,1.64
2019-03-26T16:27:42.054Z,1.87
2019-03-26T16:47:50.101Z,2.28
2019-03-26T17:07:59.720Z,7.66
2019-03-26T17:28:09.283Z,7.11
2019-03-26T17:48:21.378Z,6.50
2019-03-26T18:08:20.815Z,8.33
2019-03-26T18:28:30.361Z,6.13
2019-03-26T18:48:44.452Z,4.01
2019-03-26T19:08:43.886Z,3.88
2019-03-26T19:28:53.460Z,4.28
2019-03-26T19:49:02.986Z,3.68
2019-03-26T20:09:12.573Z,3.14
2019-03-26T20:29:25.416Z,1.55
2019-03-26T20:49:24.920Z,1.26
2019-03-26T21:09:36.072Z,1.32
2019-03-26T21:29:45.832Z,3.19
2019-03-26T21:49:48.339Z,4.43
2019-03-26T22:09:54.327Z,4.12
2019-03-26T22:30:03.818Z,3.32
2019-03-26T22:50:13.264Z,2.33
2019-03-26T23:10:22.758Z,2.09
2019-03-26T23:30:32.194Z,1.63
2019-03-26T23:50:41.668Z,1.62
